createdAt,value
2017-06-02T00:02:16.561Z,33.50
2017-06-02T00:04:44.570Z,33.50
2017-06-02T00:07:12.095Z,33.50
2017-06-02T00:09:39.613Z,33.50
2017-06-02T00:12:07.556Z,33.70
2017-06-02T00:14:35.656Z,34.10
2017-06-02T00:17:03.157Z,34.00
2017-06-02T00:19:30.684Z,33.80
2017-06-02T00:21:58.195Z,33.80
2017-06-02T00:24:25.696Z,33.70
2017-06-02T00:26:53.644Z,33.70
2017-06-02T00:29:21.156Z,33.70
2017-06-02T00:31:48.752Z,33.80
2017-06-02T00:34:16.551Z,34.00
2017-06-02T00:36:44.440Z,36.20
2017-06-02T00:39:12.592Z,36.80
2017-06-02T00:41:40.512Z,38.50
2017-06-02T00:44:08.409Z,37.90
2017-06-02T00:46:36.198Z,37.90
2017-06-02T00:49:04.134Z,38.50
2017-06-02T00:51:31.640Z,38.70
2017-06-02T00:53:59.136Z,38.80
2017-06-02T00:56:27.216Z,38.70
2017-06-02T00:58:54.775Z,38.70
2017-06-02T01:01:25.818Z,37.40
2017-06-02T01:03:53.344Z,37.40
2017-06-02T01:06:21.237Z,36.80
2017-06-02T01:08:49.451Z,37.20
2017-06-02T01:11:17.395Z,37.60
2017-06-02T01:13:44.901Z,37.60
2017-06-02T01:16:12.796Z,39.70
2017-06-02T01:18:40.370Z,39.90
2017-06-02T01:21:07.941Z,41.30
2017-06-02T01:23:35.910Z,41.90
2017-06-02T01:26:03.856Z,41.90
2017-06-02T01:28:31.351Z,41.90
2017-06-02T01:30:59.025Z,41.60
2017-06-02T01:33:26.969Z,41.90
2017-06-02T01:35:54.475Z,41.90
2017-06-02T01:38:21.975Z,42.20
2017-06-02T01:40:49.763Z,41.20
2017-06-02T01:43:17.308Z,40.50
2017-06-02T01:45:44.808Z,40.20
2017-06-02T01:48:12.738Z,40.50
2017-06-02T01:50:40.244Z,40.50
2017-06-02T01:53:08.382Z,40.50
2017-06-02T01:55:44.248Z,39.60
2017-06-02T01:58:12.145Z,38.80
2017-06-02T02:00:40.602Z,38.20
2017-06-02T02:03:08.494Z,38.20
2017-06-02T02:05:36.483Z,37.20
2017-06-02T02:08:04.400Z,36.90
2017-06-02T02:10:32.303Z,36.60
2017-06-02T02:13:00.194Z,36.50
2017-06-02T02:15:28.148Z,36.30
2017-06-02T02:17:56.076Z,36.30
2017-06-02T02:20:24.816Z,36.90
2017-06-02T02:22:52.792Z,36.80
2017-06-02T02:25:20.296Z,36.80
2017-06-02T02:27:48.297Z,37.20
2017-06-02T02:30:16.256Z,37.50
2017-06-02T02:32:44.145Z,37.40
2017-06-02T02:35:12.285Z,36.90
2017-06-02T02:37:39.819Z,36.90
2017-06-02T02:40:07.732Z,37.40
2017-06-02T02:42:35.265Z,37.40
2017-06-02T02:45:03.271Z,37.10
2017-06-02T02:47:31.576Z,36.80
2017-06-02T02:49:59.515Z,36.60
2017-06-02T02:52:27.064Z,36.60
2017-06-02T02:54:55.036Z,36.60
2017-06-02T02:57:22.539Z,36.60
2017-06-02T02:59:50.083Z,36.60
2017-06-02T03:02:17.983Z,38.50
2017-06-02T03:04:45.592Z,38.50
2017-06-02T03:07:13.535Z,38.80
2017-06-02T03:09:41.442Z,38.40
2017-06-02T03:12:09.416Z,37.90
2017-06-02T03:14:37.052Z,37.90
2017-06-02T03:17:04.939Z,39.00
2017-06-02T03:19:32.844Z,41.80
2017-06-02T03:22:00.373Z,41.80
2017-06-02T03:24:28.279Z,40.00
2017-06-02T03:26:56.206Z,39.70
2017-06-02T03:29:24.124Z,39.30
2017-06-02T03:31:52.037Z,38.70
2017-06-02T03:34:19.702Z,38.70
2017-06-02T03:36:47.648Z,37.40
2017-06-02T03:39:16.041Z,36.90
2017-06-02T03:41:43.579Z,36.90
2017-06-02T03:44:11.577Z,36.30
2017-06-02T03:46:39.475Z,36.30
2017-06-02T03:49:07.368Z,36.30
2017-06-02T03:51:34.901Z,36.30
2017-06-02T03:54:03.053Z,36.30
2017-06-02T03:56:30.955Z,36.30
2017-06-02T03:58:58.488Z,36.30
2017-06-02T04:01:25.997Z,36.20
2017-06-02T04:03:53.896Z,36.00
2017-06-02T04:06:22.164Z,35.90
2017-06-02T04:08:49.942Z,35.90
2017-06-02T04:11:17.882Z,36.00
2017-06-02T04:13:45.840Z,36.00
2017-06-02T04:16:13.400Z,36.00
2017-06-02T04:18:40.978Z,35.90
2017-06-02T04:21:08.936Z,35.70
2017-06-02T04:23:36.848Z,36.00
2017-06-02T04:26:04.775Z,36.20
2017-06-02T04:28:32.712Z,36.60
2017-06-02T04:31:00.706Z,39.60
2017-06-02T04:33:28.213Z,39.60
2017-06-02T04:35:56.135Z,44.90
2017-06-02T04:38:23.671Z,44.90
2017-06-02T04:40:51.167Z,45.80
2017-06-02T04:43:19.230Z,47.00
2017-06-02T04:45:47.253Z,47.70
2017-06-02T04:48:14.988Z,47.70
2017-06-02T04:50:42.535Z,49.30
2017-06-02T04:53:10.436Z,50.90
2017-06-02T04:55:38.343Z,50.90
2017-06-02T04:58:06.663Z,51.40
2017-06-02T05:00:34.169Z,51.40
2017-06-02T05:03:02.092Z,51.40
2017-06-02T05:05:29.643Z,50.90
2017-06-02T05:07:57.189Z,50.80
2017-06-02T05:10:24.726Z,50.90
2017-06-02T05:12:57.324Z,50.80
2017-06-02T05:15:24.861Z,50.10
2017-06-02T05:17:52.515Z,49.60
2017-06-02T05:20:20.453Z,48.00
2017-06-02T05:22:48.359Z,49.00
2017-06-02T05:25:16.486Z,48.30
2017-06-02T05:27:44.451Z,48.90
2017-06-02T05:30:12.356Z,49.00
2017-06-02T05:32:39.853Z,49.00
2017-06-02T05:35:07.780Z,48.40
2017-06-02T05:37:35.677Z,47.80
2017-06-02T05:40:03.577Z,47.80
2017-06-02T05:42:31.533Z,48.00
2017-06-02T05:44:59.432Z,48.70
2017-06-02T05:47:27.570Z,48.60
2017-06-02T05:49:55.556Z,48.60
2017-06-02T05:52:23.051Z,49.00
2017-06-02T05:54:50.958Z,46.20
2017-06-02T05:57:18.904Z,45.80
2017-06-02T05:59:46.813Z,46.10
2017-06-02T06:02:14.707Z,45.50
2017-06-02T06:04:42.227Z,45.50
2017-06-02T06:07:10.210Z,44.00
2017-06-02T06:09:38.126Z,43.70
2017-06-02T06:12:07.074Z,42.80
2017-06-02T06:14:34.765Z,42.80
2017-06-02T06:17:02.672Z,41.20
2017-06-02T06:19:30.231Z,41.20
2017-06-02T06:21:57.730Z,40.20
2017-06-02T06:24:25.243Z,40.50
2017-06-02T06:26:53.432Z,40.50
2017-06-02T06:29:20.928Z,40.50
2017-06-02T06:31:48.443Z,38.40
2017-06-02T06:34:16.418Z,38.70
2017-06-02T06:36:43.963Z,38.70
2017-06-02T06:39:11.865Z,36.00
2017-06-02T06:41:39.783Z,35.70
2017-06-02T06:44:07.680Z,34.70
2017-06-02T06:46:35.586Z,33.20
2017-06-02T06:49:03.513Z,32.50
2017-06-02T06:51:31.009Z,32.50
2017-06-02T06:53:59.148Z,29.50
2017-06-02T06:56:27.108Z,28.00
2017-06-02T06:58:55.004Z,28.40
2017-06-02T07:01:22.504Z,28.40
2017-06-02T07:03:50.712Z,28.20
2017-06-02T07:06:18.472Z,28.20
2017-06-02T07:08:46.372Z,25.70
2017-06-02T07:11:14.292Z,26.70
2017-06-02T07:13:42.200Z,25.20
2017-06-02T07:16:10.133Z,25.00
2017-06-02T07:18:37.696Z,25.00
2017-06-02T07:21:05.592Z,24.50
2017-06-02T07:23:33.500Z,23.50
2017-06-02T07:26:01.453Z,23.60
2017-06-02T07:28:29.817Z,23.80
2017-06-02T07:30:57.964Z,25.60
2017-06-02T07:33:26.425Z,23.80
2017-06-02T07:35:54.328Z,23.70
2017-06-02T07:38:21.829Z,23.70
2017-06-02T07:40:49.461Z,23.00
2017-06-02T07:43:16.973Z,24.40
2017-06-02T07:45:44.881Z,24.90
2017-06-02T07:48:12.987Z,22.70
2017-06-02T07:50:40.886Z,21.90
2017-06-02T07:53:08.436Z,21.90
2017-06-02T07:55:36.015Z,22.60
2017-06-02T07:58:03.659Z,22.00
2017-06-02T08:00:31.167Z,22.40
2017-06-02T08:02:59.414Z,22.60
2017-06-02T08:05:26.928Z,22.60
2017-06-02T08:07:54.436Z,22.10
2017-06-02T08:10:21.973Z,22.90
2017-06-02T08:12:50.767Z,20.60
2017-06-02T08:15:18.682Z,21.40
2017-06-02T08:17:46.260Z,21.30
2017-06-02T08:20:14.162Z,21.00
2017-06-02T08:22:42.078Z,20.60
2017-06-02T08:25:10.045Z,19.00
2017-06-02T08:27:37.644Z,19.00
2017-06-02T08:30:05.544Z,19.60
2017-06-02T08:32:33.512Z,20.30
2017-06-02T08:35:01.412Z,20.10
2017-06-02T08:37:29.300Z,19.20
2017-06-02T08:39:57.248Z,21.00
2017-06-02T08:42:24.757Z,21.00
2017-06-02T08:44:52.264Z,18.00
2017-06-02T08:47:20.200Z,20.10
2017-06-02T08:49:48.107Z,20.00
2017-06-02T08:52:16.119Z,20.50
2017-06-02T08:54:44.048Z,18.40
2017-06-02T08:57:11.564Z,18.40
2017-06-02T08:59:39.601Z,19.30
2017-06-02T09:02:07.132Z,19.30
2017-06-02T09:04:35.032Z,18.60
2017-06-02T09:07:02.974Z,20.10
2017-06-02T09:09:31.614Z,19.90
2017-06-02T09:11:59.510Z,19.60
2017-06-02T09:14:27.413Z,17.60
2017-06-02T09:16:55.711Z,18.20
2017-06-02T09:19:23.881Z,17.30
2017-06-02T09:21:51.771Z,17.70
2017-06-02T09:24:19.803Z,18.30
2017-06-02T09:26:47.715Z,18.60
2017-06-02T09:29:15.621Z,17.80
2017-06-02T09:31:43.164Z,17.80
2017-06-02T09:34:11.077Z,17.70
2017-06-02T09:36:38.992Z,18.20
2017-06-02T09:39:06.931Z,17.50
2017-06-02T09:41:34.838Z,17.20
2017-06-02T09:44:02.748Z,17.00
2017-06-02T09:46:30.688Z,16.20
2017-06-02T09:48:58.244Z,16.20
2017-06-02T09:51:25.824Z,18.30
2017-06-02T09:53:53.763Z,16.80
2017-06-02T09:56:21.300Z,16.80
2017-06-02T09:58:49.202Z,18.30
2017-06-02T10:01:17.274Z,16.30
2017-06-02T10:03:45.167Z,17.20
2017-06-02T10:06:13.068Z,16.80
2017-06-02T10:08:40.991Z,18.20
2017-06-02T10:11:08.911Z,15.90
2017-06-02T10:13:36.452Z,15.90
2017-06-02T10:16:04.300Z,18.20
2017-06-02T10:18:32.236Z,15.80
2017-06-02T10:21:00.223Z,17.90
2017-06-02T10:23:27.745Z,17.80
2017-06-02T10:25:55.344Z,17.20
2017-06-02T10:28:22.839Z,16.10
2017-06-02T10:30:50.807Z,17.50
2017-06-02T10:33:18.714Z,16.40
2017-06-02T10:35:46.605Z,17.20
2017-06-02T10:38:14.125Z,17.20
2017-06-02T10:40:42.064Z,16.20
2017-06-02T10:43:09.578Z,16.20
2017-06-02T10:45:38.353Z,15.90
2017-06-02T10:48:05.852Z,15.90
2017-06-02T10:50:33.354Z,17.80
2017-06-02T10:53:01.168Z,16.60
2017-06-02T10:55:29.076Z,16.40
2017-06-02T10:57:56.785Z,16.40
2017-06-02T11:00:24.316Z,17.20
2017-06-02T11:02:52.290Z,15.60
2017-06-02T11:05:19.788Z,15.60
2017-06-02T11:07:47.727Z,16.40
2017-06-02T11:10:15.292Z,16.40
2017-06-02T11:12:43.261Z,16.00
2017-06-02T11:15:10.924Z,16.00
2017-06-02T11:17:38.448Z,16.40
2017-06-02T11:20:06.561Z,15.90
2017-06-02T11:22:34.491Z,16.20
2017-06-02T11:25:02.393Z,16.50
2017-06-02T11:27:30.601Z,16.50
2017-06-02T11:29:58.635Z,15.50
2017-06-02T11:32:26.136Z,15.50
2017-06-02T11:34:54.034Z,17.60
2017-06-02T11:37:22.243Z,17.30
2017-06-02T11:39:50.167Z,16.40
2017-06-02T11:42:17.741Z,16.40
2017-06-02T11:44:45.942Z,14.80
2017-06-02T11:47:13.485Z,14.80
2017-06-02T11:49:41.063Z,15.70
2017-06-02T11:52:08.632Z,16.30
2017-06-02T11:54:36.275Z,16.40
2017-06-02T11:57:03.780Z,16.70
2017-06-02T11:59:32.021Z,14.00
2017-06-02T12:01:59.992Z,16.30
2017-06-02T12:04:27.893Z,14.30
2017-06-02T12:06:55.476Z,14.20
2017-06-02T12:09:22.977Z,14.90
2017-06-02T12:11:50.926Z,16.30
2017-06-02T12:14:20.408Z,16.60
2017-06-02T12:16:48.332Z,15.70
2017-06-02T12:19:16.084Z,15.70
2017-06-02T12:21:44.119Z,16.70
2017-06-02T12:24:12.811Z,15.30
2017-06-02T12:26:40.899Z,15.00
2017-06-02T12:29:08.555Z,15.00
2017-06-02T12:31:36.507Z,13.80
2017-06-02T12:34:04.573Z,14.80
2017-06-02T12:36:32.145Z,14.90
2017-06-02T12:39:00.035Z,16.20
2017-06-02T12:41:27.961Z,15.40
2017-06-02T12:43:55.934Z,15.40
2017-06-02T12:46:23.475Z,15.40
2017-06-02T12:48:51.368Z,14.50
2017-06-02T12:51:19.320Z,13.80
2017-06-02T12:53:46.839Z,13.80
2017-06-02T12:56:15.006Z,14.60
2017-06-02T12:58:43.276Z,13.20
2017-06-02T13:01:11.213Z,14.90
2017-06-02T13:03:39.123Z,12.00
2017-06-02T13:06:07.159Z,15.20
2017-06-02T13:08:34.674Z,15.30
2017-06-02T13:11:02.180Z,15.40
2017-06-02T13:13:30.233Z,12.40
2017-06-02T13:15:58.145Z,12.80
2017-06-02T13:21:00.372Z,14.50
2017-06-02T13:23:28.274Z,12.50
2017-06-02T13:25:55.769Z,12.50
2017-06-02T13:28:23.394Z,15.40
2017-06-02T13:30:51.575Z,11.90
2017-06-02T13:33:19.352Z,11.90
2017-06-02T13:35:47.401Z,12.50
2017-06-02T13:38:15.352Z,14.50
2017-06-02T13:40:43.262Z,14.50
2017-06-02T13:43:11.193Z,12.40
2017-06-02T13:45:39.177Z,12.00
2017-06-02T13:48:06.677Z,12.00
2017-06-02T13:50:34.215Z,12.30
2017-06-02T13:53:02.243Z,11.20
2017-06-02T13:55:30.136Z,14.90
2017-06-02T13:57:57.727Z,15.00
2017-06-02T14:00:25.625Z,14.60
2017-06-02T14:02:53.521Z,15.10
2017-06-02T14:05:21.477Z,12.30
2017-06-02T14:07:49.379Z,15.00
2017-06-02T14:10:17.309Z,15.50
2017-06-02T14:12:45.257Z,15.40
2017-06-02T14:15:13.180Z,13.70
2017-06-02T14:17:41.097Z,13.10
2017-06-02T14:20:08.953Z,13.10
2017-06-02T14:22:36.473Z,14.00
2017-06-02T14:25:03.966Z,16.70
2017-06-02T14:27:31.616Z,14.80
2017-06-02T14:29:59.532Z,13.70
2017-06-02T14:32:27.511Z,11.90
2017-06-02T14:34:55.489Z,12.00
2017-06-02T14:37:23.391Z,13.20
2017-06-02T14:39:51.277Z,12.60
2017-06-02T14:42:18.848Z,12.60
2017-06-02T14:44:46.362Z,13.80
2017-06-02T14:47:14.259Z,13.00
2017-06-02T14:49:42.246Z,13.00
2017-06-02T14:52:10.612Z,12.70
2017-06-02T14:54:38.110Z,12.70
2017-06-02T14:57:06.040Z,13.50
2017-06-02T14:59:33.927Z,13.60
2017-06-02T15:02:01.884Z,16.90
2017-06-02T15:04:29.451Z,16.90
2017-06-02T15:06:57.357Z,15.20
2017-06-02T15:09:24.899Z,15.10
2017-06-02T15:11:52.861Z,16.10
2017-06-02T15:14:20.765Z,15.80
2017-06-02T15:16:48.647Z,16.30
2017-06-02T15:19:16.760Z,16.30
2017-06-02T15:21:44.260Z,17.90
2017-06-02T15:24:11.755Z,17.70
2017-06-02T15:26:39.316Z,15.20
2017-06-02T15:29:06.815Z,16.50
2017-06-02T15:31:34.804Z,15.40
2017-06-02T15:34:02.442Z,15.40
2017-06-02T15:36:30.522Z,16.60
2017-06-02T15:38:58.755Z,18.60
2017-06-02T15:41:26.684Z,16.20
2017-06-02T15:43:54.954Z,16.00
2017-06-02T15:46:22.891Z,16.90
2017-06-02T15:48:50.430Z,16.90
2017-06-02T15:51:18.396Z,17.20
2017-06-02T15:53:46.614Z,18.10
2017-06-02T15:56:14.146Z,18.10
2017-06-02T15:58:42.336Z,17.70
2017-06-02T16:01:10.236Z,17.50
2017-06-02T16:03:38.172Z,18.50
2017-06-02T16:06:05.687Z,18.50
2017-06-02T16:08:33.581Z,18.60
2017-06-02T16:11:01.555Z,19.10
2017-06-02T16:13:29.113Z,19.10
2017-06-02T16:15:56.643Z,18.70
2017-06-02T16:18:24.168Z,18.80
2017-06-02T16:20:52.069Z,19.50
2017-06-02T16:23:19.576Z,19.50
2017-06-02T16:25:47.141Z,19.00
2017-06-02T16:28:15.242Z,19.00
2017-06-02T16:30:43.113Z,19.40
2017-06-02T16:33:11.049Z,20.20
2017-06-02T16:35:38.991Z,19.90
2017-06-02T16:38:06.892Z,20.20
2017-06-02T16:40:34.891Z,21.30
2017-06-02T16:43:02.831Z,20.30
2017-06-02T16:45:30.791Z,21.60
2017-06-02T16:47:58.321Z,21.60
2017-06-02T16:50:26.212Z,24.20
2017-06-02T16:52:54.224Z,21.00
2017-06-02T16:55:22.235Z,25.60
2017-06-02T16:57:50.173Z,24.30
2017-06-02T17:00:18.205Z,20.30
2017-06-02T17:02:46.140Z,20.40
2017-06-02T17:05:13.665Z,20.40
2017-06-02T17:07:41.609Z,20.50
2017-06-02T17:10:09.225Z,20.50
2017-06-02T17:12:37.127Z,23.40
2017-06-02T17:15:05.585Z,20.30
2017-06-02T17:17:33.639Z,21.50
2017-06-02T17:20:01.740Z,22.30
2017-06-02T17:22:29.672Z,22.90
2017-06-02T17:24:57.630Z,23.10
2017-06-02T17:27:25.201Z,23.10
2017-06-02T17:29:53.096Z,24.50
2017-06-02T17:32:21.353Z,23.90
2017-06-02T17:34:48.872Z,23.90
2017-06-02T17:37:16.476Z,24.00
2017-06-02T17:39:44.513Z,24.60
2017-06-02T17:42:12.504Z,24.90
2017-06-02T17:44:40.405Z,26.30
2017-06-02T17:47:08.529Z,26.90
2017-06-02T17:49:36.518Z,27.20
2017-06-02T17:52:04.029Z,27.10
2017-06-02T17:54:32.026Z,27.40
2017-06-02T17:56:59.720Z,27.40
2017-06-02T17:59:27.787Z,27.70
2017-06-02T18:01:55.413Z,27.70
2017-06-02T18:04:23.312Z,28.00
2017-06-02T18:06:51.220Z,27.60
2017-06-02T18:09:19.249Z,27.60
2017-06-02T18:11:47.161Z,28.30
2017-06-02T18:14:14.663Z,28.30
2017-06-02T18:16:42.644Z,29.60
2017-06-02T18:19:10.149Z,29.60
2017-06-02T18:21:38.074Z,29.90
2017-06-02T18:24:06.124Z,30.80
2017-06-02T18:26:34.130Z,31.00
2017-06-02T18:29:02.049Z,31.10
2017-06-02T18:31:30.057Z,31.10
2017-06-02T18:33:57.639Z,31.10
2017-06-02T18:36:25.161Z,31.60
2017-06-02T18:38:52.723Z,31.90
2017-06-02T18:41:21.003Z,32.50
2017-06-02T18:43:49.044Z,32.90
2017-06-02T18:46:16.619Z,32.90
2017-06-02T18:48:44.344Z,33.40
2017-06-02T18:51:12.349Z,34.40
2017-06-02T18:53:40.334Z,35.40
2017-06-02T18:56:08.297Z,35.70
2017-06-02T18:58:35.798Z,35.70
2017-06-02T19:01:03.332Z,35.90
2017-06-02T19:03:30.975Z,35.70
2017-06-02T19:05:58.869Z,36.60
2017-06-02T19:08:27.621Z,36.90
2017-06-02T19:10:55.132Z,36.90
2017-06-02T19:13:23.059Z,37.40
2017-06-02T19:15:50.616Z,37.40
2017-06-02T19:18:18.529Z,37.60
2017-06-02T19:20:46.449Z,37.90
2017-06-02T19:23:14.396Z,38.50
2017-06-02T19:25:42.312Z,38.20
2017-06-02T19:28:10.204Z,36.50
2017-06-02T19:30:38.224Z,35.30
2017-06-02T19:33:05.784Z,35.30
2017-06-02T19:35:33.729Z,35.00
2017-06-02T19:38:01.670Z,34.50
2017-06-02T19:40:29.575Z,35.60
2017-06-02T19:42:59.442Z,35.00
2017-06-02T19:45:28.448Z,35.10
2017-06-02T19:47:57.046Z,35.40
2017-06-02T19:50:24.968Z,34.80
2017-06-02T19:52:53.105Z,34.70
2017-06-02T19:55:21.032Z,34.70
2017-06-02T19:57:48.524Z,36.00
2017-06-02T20:00:16.489Z,36.60
2017-06-02T20:02:44.077Z,36.60
2017-06-02T20:05:11.582Z,36.80
2017-06-02T20:07:39.781Z,38.70
2017-06-02T20:12:51.609Z,40.00
2017-06-02T20:15:30.816Z,40.90
2017-06-02T20:20:43.893Z,41.50
2017-06-02T20:23:11.657Z,42.20
2017-06-02T20:25:39.979Z,41.90
2017-06-02T20:28:07.655Z,41.90
2017-06-02T20:30:35.594Z,40.90
2017-06-02T20:33:03.494Z,40.30
2017-06-02T20:35:31.385Z,40.00
2017-06-02T20:37:59.321Z,39.90
2017-06-02T20:40:26.920Z,39.90
2017-06-02T20:42:54.423Z,40.20
2017-06-02T20:45:22.384Z,38.40
2017-06-02T20:47:50.324Z,37.60
2017-06-02T20:50:18.292Z,38.20
2017-06-02T20:52:46.353Z,36.90
2017-06-02T20:55:13.864Z,36.90
2017-06-02T20:57:41.477Z,37.40
2017-06-02T21:00:12.023Z,37.40
2017-06-02T21:02:40.501Z,36.80
2017-06-02T21:05:08.016Z,36.80
2017-06-02T21:07:36.036Z,36.00
2017-06-02T21:10:03.571Z,36.00
2017-06-02T21:12:31.464Z,35.40
2017-06-02T21:14:59.431Z,35.60
2017-06-02T21:17:27.331Z,33.70
2017-06-02T21:19:54.832Z,33.70
2017-06-02T21:22:47.777Z,33.50
2017-06-02T21:25:15.567Z,35.30
2017-06-02T21:27:43.115Z,33.20
2017-06-02T21:30:10.650Z,34.10
2017-06-02T21:32:38.666Z,32.80
2017-06-02T21:35:07.392Z,33.80
2017-06-02T21:37:37.836Z,32.90
2017-06-02T21:40:05.336Z,32.90
2017-06-02T21:42:32.828Z,34.50
2017-06-02T21:45:01.049Z,33.40
2017-06-02T21:47:28.531Z,33.40
2017-06-02T21:49:56.048Z,37.90
2017-06-02T21:52:23.569Z,32.60
2017-06-02T21:54:51.130Z,33.10
2017-06-02T21:57:19.072Z,34.70
2017-06-02T21:59:46.586Z,34.80
2017-06-02T22:02:14.461Z,32.90
2017-06-02T22:04:42.039Z,33.40
2017-06-02T22:07:09.565Z,33.40
2017-06-02T22:09:37.072Z,33.70
2017-06-02T22:12:05.460Z,34.00
2017-06-02T22:14:33.005Z,38.10
2017-06-02T22:17:00.548Z,35.60
2017-06-02T22:19:28.324Z,35.40
2017-06-02T22:21:55.846Z,35.00
2017-06-02T22:24:23.347Z,34.40
2017-06-02T22:26:50.848Z,35.60
2017-06-02T22:29:18.771Z,35.60
2017-06-02T22:31:46.270Z,35.60
2017-06-02T22:34:14.156Z,36.50
2017-06-02T22:36:41.785Z,36.60
2017-06-02T22:39:09.676Z,36.30
2017-06-02T22:41:37.187Z,36.20
2017-06-02T22:44:04.816Z,36.90
2017-06-02T22:46:32.315Z,36.90
2017-06-02T22:49:00.220Z,36.90
2017-06-02T22:51:27.742Z,36.90
2017-06-02T22:53:55.245Z,40.30
2017-06-02T22:56:22.738Z,37.40
2017-06-02T22:58:50.280Z,38.20
2017-06-02T23:01:17.837Z,40.20
2017-06-02T23:03:45.333Z,38.40
2017-06-02T23:06:13.189Z,39.10
2017-06-02T23:08:40.683Z,38.70
2017-06-02T23:11:08.560Z,39.30
2017-06-02T23:13:36.100Z,39.30
2017-06-02T23:16:03.984Z,39.60
2017-06-02T23:18:31.491Z,39.60
2017-06-02T23:20:59.020Z,39.70
2017-06-02T23:23:26.904Z,39.70
2017-06-02T23:25:54.427Z,39.60
2017-06-02T23:28:21.962Z,39.60
2017-06-02T23:30:49.451Z,39.60
2017-06-02T23:33:16.939Z,40.30
2017-06-02T23:35:44.486Z,40.30
2017-06-02T23:38:11.992Z,40.20
2017-06-02T23:40:41.663Z,40.50
2017-06-02T23:43:09.529Z,40.30
2017-06-02T23:45:37.262Z,40.00
2017-06-02T23:48:05.056Z,39.90
2017-06-02T23:50:32.580Z,39.70
2017-06-02T23:53:00.077Z,39.90
2017-06-02T23:55:27.567Z,40.20
2017-06-02T23:57:55.120Z,40.70
